Details for UPS at ZSPD




Go Back


Latest METAR
Local Time

ZSPD 180600Z 14009MPS 9999 BKN016 30/26 Q1004 NOSIG
18/08/2018, 14:29:20

Description
Results
UPS Logo
Number of Pilots based at ZSPD
0 Pilots Based here
Number of UPS Flights Departed from ZSPD
0 Flights Departed
Number of UPS Flights Arrived at ZSPD
0 Flights Arrived
Number of UPS Schedules Departing from ZSPD
28 Schedules
Number of UPS Schedules Arriving at ZSPD
27 Schedules
Number of UPS Schedules Departing from ZSPD availible today
2 Schedules Today
Number of UPS Schedules Arriving at ZSPD availible today
5 Schedules Today
Average Landing Rate at ZSPD
-181 fpm
UPS Average Landing Rate at ZSPD
0 fpm
Total Fuel Purchased at ZSPD by UPS
0.00 kgs / 0.00 lbs

Pilots Based at ZSPD


Pilot ID
Pilot Name
Pilot Rank
No. of Flights
No. of Flying Hours
There are no pilots assigned to this hub!   Will you be the first?
Content